ロサンゼルス の空港の天気 - METARとTAF

ロサンゼルス国際空港 ( KLAX / LAX ) - アメリカ合衆国 カリフォルニア州ロサンゼルス
飛行場実況気象(Metar)
観測時間09/26 04:53 PDT (09/26 11:53 UTC)
風向・風速東 2m/s
視程10km以上
天気現象
少しの雲 雲底高度 6100m
全天の4割程度の雲 雲底高度 7620m
気温18.3℃
湿度42%
気圧1008hPa
METARKLAX 261153Z 10004KT 10SM FEW200 SCT250 18/05 A2978 RMK AO2 SLP080 T01830050 10206 20167 56003 $
過去の天気等 Google飛行場航空写真 Wunderground天気予報

過去48時間のMETAR

飛行場予報(TAF)
発表時間: 9/26 04:40 PDT (9/26 11:40 UTC)
予報対象時間: 26日5時 PDT ~ 27日11時 PDT
風向・風速東 3m/s
視程10km以上
なし
26日9時 PDT から
風向・風速不定 2m/s
視程10km以上
なし
26日12時 PDT から
風向・風速西 6m/s
視程10km以上
なし
26日22時 PDT から
風向・風速不定 2m/s
視程10km以上
なし
27日5時 PDT から
風向・風速不定 2m/s
視程8,050m
天気現象煙霧
全天の8割程度の雲 雲底高度 460m
27日8時 PDT から
風向・風速不定 2m/s
視程8,050m
天気現象煙霧
全天の4割程度の雲 雲底高度 460m
27日10時 PDT から
風向・風速西 3m/s
視程10km以上
なし
KLAX 261140Z 2612/2718 08005KT P6SM SKC
FM261600 VRB03KT P6SM SKC
FM261900 26012KT P6SM SKC
FM270500 VRB03KT P6SM SKC
FM271200 VRB03KT 5SM HZ BKN015
FM271500 VRB03KT 5SM HZ SCT015
FM271700 27006KT P6SM SKC